Oran, Argentina
Current Conditions -  °F | °C
As of 12:00 PM on Thursday 30 Oct 2014 (Local Time) from SLYA Reporting Station
Overcast Overcast  
Wind Chill: 28°   Ceiling: 2700
Heat Index: 31°   Visibility: 6mi
Dew Point: 22°   Wind: 14mph
Humidity: 70%   Direction: 180°S
Pressure: 29.77"   Gusts: NA
Location:  23.14°S, 64.32°W
Report Text: SLYA 301500Z 18012KT 9999 BKN027 OVC070 28/22 Q1008
Loading
Personal Weather Stations






























Interactive Weather Map
Tropical Storm Tracking
New forecast layout! Learn more

10-Day Weather Forecast

Advertisements
Track Severe Weather on mobile